sensor_id;sensor_type;location;lat;lon;timestamp;temperature;humidity
8715;DHT22;4394;51.208;8.904;2023-04-03T00:00:12;5.20;99.90
8715;DHT22;4394;51.208;8.904;2023-04-03T00:03:00;5.20;99.90
8715;DHT22;4394;51.208;8.904;2023-04-03T00:05:48;5.10;99.90
8715;DHT22;4394;51.208;8.904;2023-04-03T00:08:37;5.10;99.90
8715;DHT22;4394;51.208;8.904;2023-04-03T00:11:25;5.10;99.90
8715;DHT22;4394;51.208;8.904;2023-04-03T00:14:15;5.10;99.90
8715;DHT22;4394;51.208;8.904;2023-04-03T00:17:03;5.10;99.90
8715;DHT22;4394;51.208;8.904;2023-04-03T00:19:51;5.00;99.90
8715;DHT22;4394;51.208;8.904;2023-04-03T00:22:39;5.00;99.90
8715;DHT22;4394;51.208;8.904;2023-04-03T00:25:27;4.90;99.90
8715;DHT22;4394;51.208;8.904;2023-04-03T00:28:15;4.90;99.90
8715;DHT22;4394;51.208;8.904;2023-04-03T00:31:05;4.80;99.90
8715;DHT22;4394;51.208;8.904;2023-04-03T00:33:53;4.80;99.90
8715;DHT22;4394;51.208;8.904;2023-04-03T00:36:41;4.80;99.90
8715;DHT22;4394;51.208;8.904;2023-04-03T00:39:29;4.80;99.90
8715;DHT22;4394;51.208;8.904;2023-04-03T00:42:17;4.70;99.90
8715;DHT22;4394;51.208;8.904;2023-04-03T00:45:26;4.70;99.90
8715;DHT22;4394;51.208;8.904;2023-04-03T00:48:20;4.70;99.90
8715;DHT22;4394;51.208;8.904;2023-04-03T00:51:11;4.60;99.90
8715;DHT22;4394;51.208;8.904;2023-04-03T00:54:02;4.50;99.90
8715;DHT22;4394;51.208;8.904;2023-04-03T00:56:52;4.50;99.90
8715;DHT22;4394;51.208;8.904;2023-04-03T00:59:44;4.40;99.90
8715;DHT22;4394;51.208;8.904;2023-04-03T01:02:34;4.40;99.90
8715;DHT22;4394;51.208;8.904;2023-04-03T01:05:23;4.30;99.90
8715;DHT22;4394;51.208;8.904;2023-04-03T01:08:11;4.30;99.90
8715;DHT22;4394;51.208;8.904;2023-04-03T01:10:59;4.20;99.90
8715;DHT22;4394;51.208;8.904;2023-04-03T01:13:48;4.20;99.90
8715;DHT22;4394;51.208;8.904;2023-04-03T01:16:36;4.10;99.90
8715;DHT22;4394;51.208;8.904;2023-04-03T01:19:25;4.00;99.90
8715;DHT22;4394;51.208;8.904;2023-04-03T01:22:19;4.00;99.90
8715;DHT22;4394;51.208;8.904;2023-04-03T01:25:11;3.90;99.90
8715;DHT22;4394;51.208;8.904;2023-04-03T01:28:00;3.80;99.90
8715;DHT22;4394;51.208;8.904;2023-04-03T01:30:51;3.70;99.90
8715;DHT22;4394;51.208;8.904;2023-04-03T01:33:42;3.70;99.90
8715;DHT22;4394;51.208;8.904;2023-04-03T01:36:31;3.70;99.90
8715;DHT22;4394;51.208;8.904;2023-04-03T01:39:20;3.60;99.90
8715;DHT22;4394;51.208;8.904;2023-04-03T01:42:08;3.60;99.90
8715;DHT22;4394;51.208;8.904;2023-04-03T01:44:57;3.60;99.90
8715;DHT22;4394;51.208;8.904;2023-04-03T01:47:45;3.50;99.90
8715;DHT22;4394;51.208;8.904;2023-04-03T01:50:34;3.50;99.90
8715;DHT22;4394;51.208;8.904;2023-04-03T01:53:23;3.40;99.90
8715;DHT22;4394;51.208;8.904;2023-04-03T01:56:11;3.40;99.90
8715;DHT22;4394;51.208;8.904;2023-04-03T01:58:59;3.40;99.90
8715;DHT22;4394;51.208;8.904;2023-04-03T02:01:47;3.40;99.90
8715;DHT22;4394;51.208;8.904;2023-04-03T02:04:35;3.30;99.90
8715;DHT22;4394;51.208;8.904;2023-04-03T02:07:24;3.20;99.90
8715;DHT22;4394;51.208;8.904;2023-04-03T02:10:12;3.20;99.90
8715;DHT22;4394;51.208;8.904;2023-04-03T02:13:00;3.10;99.90
8715;DHT22;4394;51.208;8.904;2023-04-03T02:15:48;3.10;99.90
8715;DHT22;4394;51.208;8.904;2023-04-03T02:18:37;3.10;99.90
8715;DHT22;4394;51.208;8.904;2023-04-03T02:21:25;3.00;99.90
8715;DHT22;4394;51.208;8.904;2023-04-03T02:24:14;3.00;99.90
8715;DHT22;4394;51.208;8.904;2023-04-03T02:27:02;3.00;99.90
8715;DHT22;4394;51.208;8.904;2023-04-03T02:29:50;2.90;99.90
8715;DHT22;4394;51.208;8.904;2023-04-03T02:32:38;2.80;99.90
8715;DHT22;4394;51.208;8.904;2023-04-03T02:35:27;2.70;99.90
8715;DHT22;4394;51.208;8.904;2023-04-03T02:38:15;2.70;99.90
8715;DHT22;4394;51.208;8.904;2023-04-03T02:41:06;2.60;99.90
8715;DHT22;4394;51.208;8.904;2023-04-03T02:43:54;2.60;99.90
8715;DHT22;4394;51.208;8.904;2023-04-03T02:46:42;2.60;99.90
8715;DHT22;4394;51.208;8.904;2023-04-03T02:49:30;2.60;99.90
8715;DHT22;4394;51.208;8.904;2023-04-03T02:52:18;2.50;99.90
8715;DHT22;4394;51.208;8.904;2023-04-03T02:55:07;2.50;99.90
8715;DHT22;4394;51.208;8.904;2023-04-03T02:57:56;2.50;99.90
8715;DHT22;4394;51.208;8.904;2023-04-03T03:00:44;2.40;99.90
8715;DHT22;4394;51.208;8.904;2023-04-03T03:03:32;2.30;99.90
8715;DHT22;4394;51.208;8.904;2023-04-03T03:06:20;2.30;99.90
8715;DHT22;4394;51.208;8.904;2023-04-03T03:09:08;2.30;99.90
8715;DHT22;4394;51.208;8.904;2023-04-03T03:11:56;2.20;99.90
8715;DHT22;4394;51.208;8.904;2023-04-03T03:14:46;2.20;99.90
8715;DHT22;4394;51.208;8.904;2023-04-03T03:17:34;2.20;99.90
8715;DHT22;4394;51.208;8.904;2023-04-03T03:20:22;2.20;99.90
8715;DHT22;4394;51.208;8.904;2023-04-03T03:23:10;2.10;99.90
8715;DHT22;4394;51.208;8.904;2023-04-03T03:26:01;2.10;99.90
8715;DHT22;4394;51.208;8.904;2023-04-03T03:28:49;2.10;99.90
8715;DHT22;4394;51.208;8.904;2023-04-03T03:31:39;2.00;99.90
8715;DHT22;4394;51.208;8.904;2023-04-03T03:34:27;2.00;99.90
8715;DHT22;4394;51.208;8.904;2023-04-03T03:37:15;1.90;99.90
8715;DHT22;4394;51.208;8.904;2023-04-03T03:40:03;1.90;99.90
8715;DHT22;4394;51.208;8.904;2023-04-03T03:42:51;1.80;99.90
8715;DHT22;4394;51.208;8.904;2023-04-03T03:45:39;1.80;99.90
8715;DHT22;4394;51.208;8.904;2023-04-03T03:48:28;1.80;99.90
8715;DHT22;4394;51.208;8.904;2023-04-03T03:51:17;1.80;99.90
8715;DHT22;4394;51.208;8.904;2023-04-03T03:54:05;1.80;99.90
8715;DHT22;4394;51.208;8.904;2023-04-03T03:56:53;1.70;99.90
8715;DHT22;4394;51.208;8.904;2023-04-03T03:59:41;1.70;99.90
8715;DHT22;4394;51.208;8.904;2023-04-03T04:02:31;1.70;99.90
8715;DHT22;4394;51.208;8.904;2023-04-03T04:05:20;1.70;99.90
8715;DHT22;4394;51.208;8.904;2023-04-03T04:08:08;1.60;99.90
8715;DHT22;4394;51.208;8.904;2023-04-03T04:10:56;1.60;99.90
8715;DHT22;4394;51.208;8.904;2023-04-03T04:13:44;1.60;99.90
8715;DHT22;4394;51.208;8.904;2023-04-03T04:16:32;1.60;99.90
8715;DHT22;4394;51.208;8.904;2023-04-03T04:19:21;1.70;99.90
8715;DHT22;4394;51.208;8.904;2023-04-03T04:22:10;1.60;99.90
8715;DHT22;4394;51.208;8.904;2023-04-03T04:24:58;1.60;99.90
8715;DHT22;4394;51.208;8.904;2023-04-03T04:27:46;1.50;99.90
8715;DHT22;4394;51.208;8.904;2023-04-03T04:30:34;1.50;99.90
8715;DHT22;4394;51.208;8.904;2023-04-03T04:33:22;1.40;99.90
8715;DHT22;4394;51.208;8.904;2023-04-03T04:36:10;1.40;99.90
8715;DHT22;4394;51.208;8.904;2023-04-03T04:39:00;1.40;99.90
8715;DHT22;4394;51.208;8.904;2023-04-03T04:41:48;1.40;99.90
8715;DHT22;4394;51.208;8.904;2023-04-03T04:44:36;1.40;99.90
8715;DHT22;4394;51.208;8.904;2023-04-03T04:47:24;1.40;99.90
8715;DHT22;4394;51.208;8.904;2023-04-03T04:50:12;1.40;99.90
8715;DHT22;4394;51.208;8.904;2023-04-03T04:53:00;1.40;99.90
8715;DHT22;4394;51.208;8.904;2023-04-03T04:55:50;1.40;99.90
8715;DHT22;4394;51.208;8.904;2023-04-03T04:58:39;1.40;99.90
8715;DHT22;4394;51.208;8.904;2023-04-03T05:01:27;1.40;99.90
8715;DHT22;4394;51.208;8.904;2023-04-03T05:04:15;1.40;99.90
8715;DHT22;4394;51.208;8.904;2023-04-03T05:07:03;1.30;99.90
8715;DHT22;4394;51.208;8.904;2023-04-03T05:09:51;1.40;99.90
8715;DHT22;4394;51.208;8.904;2023-04-03T05:12:41;1.30;99.90
8715;DHT22;4394;51.208;8.904;2023-04-03T05:15:29;1.30;99.90
8715;DHT22;4394;51.208;8.904;2023-04-03T05:18:17;1.30;99.90
8715;DHT22;4394;51.208;8.904;2023-04-03T05:21:05;1.30;99.90
8715;DHT22;4394;51.208;8.904;2023-04-03T05:23:53;1.20;99.90
8715;DHT22;4394;51.208;8.904;2023-04-03T05:26:41;1.20;99.90
8715;DHT22;4394;51.208;8.904;2023-04-03T05:29:30;1.20;99.90
8715;DHT22;4394;51.208;8.904;2023-04-03T05:32:18;1.20;99.90
8715;DHT22;4394;51.208;8.904;2023-04-03T05:35:07;1.20;99.90
8715;DHT22;4394;51.208;8.904;2023-04-03T05:37:55;1.30;99.90
8715;DHT22;4394;51.208;8.904;2023-04-03T05:40:43;1.30;99.90
8715;DHT22;4394;51.208;8.904;2023-04-03T05:43:31;1.30;99.90
8715;DHT22;4394;51.208;8.904;2023-04-03T05:46:22;1.30;99.90
8715;DHT22;4394;51.208;8.904;2023-04-03T05:49:10;1.30;99.90
8715;DHT22;4394;51.208;8.904;2023-04-03T05:51:58;1.30;99.90
8715;DHT22;4394;51.208;8.904;2023-04-03T05:54:46;1.30;99.90
8715;DHT22;4394;51.208;8.904;2023-04-03T05:57:35;1.40;99.90
8715;DHT22;4394;51.208;8.904;2023-04-03T06:00:23;1.40;99.90
8715;DHT22;4394;51.208;8.904;2023-04-03T06:03:12;1.50;99.90
8715;DHT22;4394;51.208;8.904;2023-04-03T06:06:03;1.60;99.90
8715;DHT22;4394;51.208;8.904;2023-04-03T06:08:51;1.60;99.90
8715;DHT22;4394;51.208;8.904;2023-04-03T06:11:40;1.50;99.90
8715;DHT22;4394;51.208;8.904;2023-04-03T06:14:28;1.60;99.90
8715;DHT22;4394;51.208;8.904;2023-04-03T06:17:18;1.60;99.90
8715;DHT22;4394;51.208;8.904;2023-04-03T06:20:08;1.70;99.90
8715;DHT22;4394;51.208;8.904;2023-04-03T06:22:57;1.70;99.90
8715;DHT22;4394;51.208;8.904;2023-04-03T06:25:45;1.70;99.90
8715;DHT22;4394;51.208;8.904;2023-04-03T06:28:33;1.70;99.90
8715;DHT22;4394;51.208;8.904;2023-04-03T06:31:21;1.70;99.90
8715;DHT22;4394;51.208;8.904;2023-04-03T06:34:10;1.80;99.90
8715;DHT22;4394;51.208;8.904;2023-04-03T06:37:00;2.00;99.90
8715;DHT22;4394;51.208;8.904;2023-04-03T06:39:48;2.10;99.90
8715;DHT22;4394;51.208;8.904;2023-04-03T06:42:37;2.20;99.90
8715;DHT22;4394;51.208;8.904;2023-04-03T06:45:25;2.40;99.90
8715;DHT22;4394;51.208;8.904;2023-04-03T06:48:13;2.60;99.90
8715;DHT22;4394;51.208;8.904;2023-04-03T06:51:01;2.60;99.90
8715;DHT22;4394;51.208;8.904;2023-04-03T06:53:51;2.70;99.90
8715;DHT22;4394;51.208;8.904;2023-04-03T06:56:39;2.80;99.90
8715;DHT22;4394;51.208;8.904;2023-04-03T06:59:27;2.80;99.90
8715;DHT22;4394;51.208;8.904;2023-04-03T07:02:15;2.80;99.90
8715;DHT22;4394;51.208;8.904;2023-04-03T07:05:04;2.90;99.90
8715;DHT22;4394;51.208;8.904;2023-04-03T07:07:53;3.00;99.90
8715;DHT22;4394;51.208;8.904;2023-04-03T07:10:42;3.00;99.90
8715;DHT22;4394;51.208;8.904;2023-04-03T07:13:30;3.00;99.90
8715;DHT22;4394;51.208;8.904;2023-04-03T07:16:19;3.10;99.90
8715;DHT22;4394;51.208;8.904;2023-04-03T07:19:07;3.10;99.90
8715;DHT22;4394;51.208;8.904;2023-04-03T07:21:56;3.20;99.90
8715;DHT22;4394;51.208;8.904;2023-04-03T07:24:44;3.20;99.90
8715;DHT22;4394;51.208;8.904;2023-04-03T07:27:34;3.20;99.90
8715;DHT22;4394;51.208;8.904;2023-04-03T07:30:22;3.30;99.90
8715;DHT22;4394;51.208;8.904;2023-04-03T07:33:10;3.20;99.90
8715;DHT22;4394;51.208;8.904;2023-04-03T07:35:59;3.30;99.90
8715;DHT22;4394;51.208;8.904;2023-04-03T07:38:47;3.40;99.90
8715;DHT22;4394;51.208;8.904;2023-04-03T07:41:35;3.50;99.90
8715;DHT22;4394;51.208;8.904;2023-04-03T07:44:25;3.40;99.90
8715;DHT22;4394;51.208;8.904;2023-04-03T07:47:13;3.50;99.90
8715;DHT22;4394;51.208;8.904;2023-04-03T07:50:03;3.50;99.90
8715;DHT22;4394;51.208;8.904;2023-04-03T07:52:51;3.60;99.90
8715;DHT22;4394;51.208;8.904;2023-04-03T07:55:41;3.70;99.90
8715;DHT22;4394;51.208;8.904;2023-04-03T07:58:30;3.80;99.90
8715;DHT22;4394;51.208;8.904;2023-04-03T08:01:19;3.80;99.90
8715;DHT22;4394;51.208;8.904;2023-04-03T08:04:08;3.90;99.90
8715;DHT22;4394;51.208;8.904;2023-04-03T08:06:56;4.00;99.90
8715;DHT22;4394;51.208;8.904;2023-04-03T08:09:45;4.10;99.90
8715;DHT22;4394;51.208;8.904;2023-04-03T08:12:33;4.10;99.90
8715;DHT22;4394;51.208;8.904;2023-04-03T08:15:21;4.30;99.90
8715;DHT22;4394;51.208;8.904;2023-04-03T08:18:10;4.30;99.90
8715;DHT22;4394;51.208;8.904;2023-04-03T08:20:58;4.40;99.90
8715;DHT22;4394;51.208;8.904;2023-04-03T08:23:48;4.50;99.90
8715;DHT22;4394;51.208;8.904;2023-04-03T08:26:36;4.60;99.90
8715;DHT22;4394;51.208;8.904;2023-04-03T08:29:25;4.90;99.90
8715;DHT22;4394;51.208;8.904;2023-04-03T08:32:13;4.80;99.90
8715;DHT22;4394;51.208;8.904;2023-04-03T08:35:02;4.70;99.90
8715;DHT22;4394;51.208;8.904;2023-04-03T08:37:50;4.80;99.90
8715;DHT22;4394;51.208;8.904;2023-04-03T08:40:38;4.80;99.90
8715;DHT22;4394;51.208;8.904;2023-04-03T08:43:31;4.80;99.90
8715;DHT22;4394;51.208;8.904;2023-04-03T08:46:25;5.00;99.90
8715;DHT22;4394;51.208;8.904;2023-04-03T08:49:22;5.00;99.90
8715;DHT22;4394;51.208;8.904;2023-04-03T08:52:15;5.10;99.90
8715;DHT22;4394;51.208;8.904;2023-04-03T08:55:10;5.10;99.90
8715;DHT22;4394;51.208;8.904;2023-04-03T08:58:02;5.10;99.90
8715;DHT22;4394;51.208;8.904;2023-04-03T09:00:53;5.20;99.90
8715;DHT22;4394;51.208;8.904;2023-04-03T09:03:43;5.30;99.90
8715;DHT22;4394;51.208;8.904;2023-04-03T09:06:32;5.30;99.90
8715;DHT22;4394;51.208;8.904;2023-04-03T09:09:33;5.40;99.90
8715;DHT22;4394;51.208;8.904;2023-04-03T09:12:25;5.50;99.90
8715;DHT22;4394;51.208;8.904;2023-04-03T09:15:19;5.50;99.90
8715;DHT22;4394;51.208;8.904;2023-04-03T09:18:26;5.60;99.90
8715;DHT22;4394;51.208;8.904;2023-04-03T09:21:19;5.60;99.90
8715;DHT22;4394;51.208;8.904;2023-04-03T09:24:10;5.70;99.90
8715;DHT22;4394;51.208;8.904;2023-04-03T09:27:04;5.70;99.90
8715;DHT22;4394;51.208;8.904;2023-04-03T09:29:54;5.70;99.90
8715;DHT22;4394;51.208;8.904;2023-04-03T09:32:44;5.80;99.90
8715;DHT22;4394;51.208;8.904;2023-04-03T09:35:37;5.80;99.90
8715;DHT22;4394;51.208;8.904;2023-04-03T09:38:34;5.90;99.90
8715;DHT22;4394;51.208;8.904;2023-04-03T09:41:22;5.90;99.90
8715;DHT22;4394;51.208;8.904;2023-04-03T09:44:23;6.00;99.90
8715;DHT22;4394;51.208;8.904;2023-04-03T09:47:19;6.10;99.90
8715;DHT22;4394;51.208;8.904;2023-04-03T09:50:21;6.30;99.90
8715;DHT22;4394;51.208;8.904;2023-04-03T09:53:27;6.30;99.90
8715;DHT22;4394;51.208;8.904;2023-04-03T09:56:21;6.30;99.90
8715;DHT22;4394;51.208;8.904;2023-04-03T09:59:14;6.40;99.90
8715;DHT22;4394;51.208;8.904;2023-04-03T10:02:22;6.40;99.90
8715;DHT22;4394;51.208;8.904;2023-04-03T10:05:28;6.50;99.90
8715;DHT22;4394;51.208;8.904;2023-04-03T10:08:23;6.50;99.90
8715;DHT22;4394;51.208;8.904;2023-04-03T10:11:14;6.60;99.90
8715;DHT22;4394;51.208;8.904;2023-04-03T10:14:03;6.60;99.90
8715;DHT22;4394;51.208;8.904;2023-04-03T10:17:02;6.50;99.90
8715;DHT22;4394;51.208;8.904;2023-04-03T10:19:55;6.50;99.90
8715;DHT22;4394;51.208;8.904;2023-04-03T10:22:50;6.70;99.90
8715;DHT22;4394;51.208;8.904;2023-04-03T10:25:50;6.80;99.90
8715;DHT22;4394;51.208;8.904;2023-04-03T10:28:44;6.90;99.90
8715;DHT22;4394;51.208;8.904;2023-04-03T10:31:39;7.00;99.90
8715;DHT22;4394;51.208;8.904;2023-04-03T10:34:35;7.10;99.90
8715;DHT22;4394;51.208;8.904;2023-04-03T10:37:27;7.20;99.90
8715;DHT22;4394;51.208;8.904;2023-04-03T10:40:29;7.30;99.90
8715;DHT22;4394;51.208;8.904;2023-04-03T10:43:25;7.40;99.90
8715;DHT22;4394;51.208;8.904;2023-04-03T10:46:21;7.40;99.90
8715;DHT22;4394;51.208;8.904;2023-04-03T10:49:19;7.40;99.90
8715;DHT22;4394;51.208;8.904;2023-04-03T10:52:17;7.40;99.90
8715;DHT22;4394;51.208;8.904;2023-04-03T10:55:21;7.40;99.90
8715;DHT22;4394;51.208;8.904;2023-04-03T10:58:14;7.50;99.90
8715;DHT22;4394;51.208;8.904;2023-04-03T11:01:08;7.50;99.90
8715;DHT22;4394;51.208;8.904;2023-04-03T11:03:58;7.70;99.90
8715;DHT22;4394;51.208;8.904;2023-04-03T11:06:48;7.70;99.90
8715;DHT22;4394;51.208;8.904;2023-04-03T11:09:40;7.80;99.90
8715;DHT22;4394;51.208;8.904;2023-04-03T11:12:36;7.80;99.90
8715;DHT22;4394;51.208;8.904;2023-04-03T11:15:28;7.80;99.90
8715;DHT22;4394;51.208;8.904;2023-04-03T11:18:20;7.70;99.90
8715;DHT22;4394;51.208;8.904;2023-04-03T11:21:14;7.70;99.90
8715;DHT22;4394;51.208;8.904;2023-04-03T11:24:05;7.70;99.90
8715;DHT22;4394;51.208;8.904;2023-04-03T11:27:02;7.60;99.90
8715;DHT22;4394;51.208;8.904;2023-04-03T11:29:53;7.70;99.90
8715;DHT22;4394;51.208;8.904;2023-04-03T11:36:06;8.00;99.90
8715;DHT22;4394;51.208;8.904;2023-04-03T11:39:19;8.10;99.90
8715;DHT22;4394;51.208;8.904;2023-04-03T11:42:17;8.20;99.90
8715;DHT22;4394;51.208;8.904;2023-04-03T11:45:31;8.20;99.90
8715;DHT22;4394;51.208;8.904;2023-04-03T11:48:47;8.30;99.90
8715;DHT22;4394;51.208;8.904;2023-04-03T11:51:44;8.40;99.90
8715;DHT22;4394;51.208;8.904;2023-04-03T11:54:45;8.40;99.90
8715;DHT22;4394;51.208;8.904;2023-04-03T11:58:02;8.50;99.90
8715;DHT22;4394;51.208;8.904;2023-04-03T12:01:06;8.70;99.90
8715;DHT22;4394;51.208;8.904;2023-04-03T12:04:08;8.70;99.90
8715;DHT22;4394;51.208;8.904;2023-04-03T12:07:18;8.80;99.90
8715;DHT22;4394;51.208;8.904;2023-04-03T12:10:19;8.80;99.90
8715;DHT22;4394;51.208;8.904;2023-04-03T12:13:18;8.70;99.90
8715;DHT22;4394;51.208;8.904;2023-04-03T12:16:19;8.60;99.90
8715;DHT22;4394;51.208;8.904;2023-04-03T12:19:30;8.60;99.90
8715;DHT22;4394;51.208;8.904;2023-04-03T12:22:28;8.60;98.40
8715;DHT22;4394;51.208;8.904;2023-04-03T12:25:46;8.60;99.90
8715;DHT22;4394;51.208;8.904;2023-04-03T12:28:39;8.70;99.90
8715;DHT22;4394;51.208;8.904;2023-04-03T12:31:38;8.70;99.90
8715;DHT22;4394;51.208;8.904;2023-04-03T12:34:45;8.70;99.90
8715;DHT22;4394;51.208;8.904;2023-04-03T12:37:49;8.80;98.40
8715;DHT22;4394;51.208;8.904;2023-04-03T12:40:43;9.00;99.90
8715;DHT22;4394;51.208;8.904;2023-04-03T12:43:46;9.00;99.90
8715;DHT22;4394;51.208;8.904;2023-04-03T12:46:42;9.10;99.90
8715;DHT22;4394;51.208;8.904;2023-04-03T12:49:35;9.20;99.90
8715;DHT22;4394;51.208;8.904;2023-04-03T12:52:35;9.20;99.90
8715;DHT22;4394;51.208;8.904;2023-04-03T12:55:24;9.40;99.90
8715;DHT22;4394;51.208;8.904;2023-04-03T12:58:14;9.50;99.90
8715;DHT22;4394;51.208;8.904;2023-04-03T13:01:04;9.40;99.90
8715;DHT22;4394;51.208;8.904;2023-04-03T13:03:58;9.40;99.90
8715;DHT22;4394;51.208;8.904;2023-04-03T13:06:47;9.40;99.90
8715;DHT22;4394;51.208;8.904;2023-04-03T13:09:35;9.40;99.70
8715;DHT22;4394;51.208;8.904;2023-04-03T13:12:23;9.40;99.90
8715;DHT22;4394;51.208;8.904;2023-04-03T13:15:14;9.30;99.30
8715;DHT22;4394;51.208;8.904;2023-04-03T13:18:02;9.30;99.90
8715;DHT22;4394;51.208;8.904;2023-04-03T13:20:53;9.40;99.90
8715;DHT22;4394;51.208;8.904;2023-04-03T13:23:45;9.50;99.90
8715;DHT22;4394;51.208;8.904;2023-04-03T13:26:37;9.60;99.90
8715;DHT22;4394;51.208;8.904;2023-04-03T13:29:28;9.60;99.00
8715;DHT22;4394;51.208;8.904;2023-04-03T13:32:20;9.60;99.90
8715;DHT22;4394;51.208;8.904;2023-04-03T13:35:25;9.60;99.90
8715;DHT22;4394;51.208;8.904;2023-04-03T13:38:24;9.70;99.90
8715;DHT22;4394;51.208;8.904;2023-04-03T13:41:25;9.80;99.90
8715;DHT22;4394;51.208;8.904;2023-04-03T13:44:34;9.80;99.90
8715;DHT22;4394;51.208;8.904;2023-04-03T13:47:23;10.00;99.90
8715;DHT22;4394;51.208;8.904;2023-04-03T13:50:17;10.20;99.90
8715;DHT22;4394;51.208;8.904;2023-04-03T13:53:11;10.30;99.80
8715;DHT22;4394;51.208;8.904;2023-04-03T13:56:07;10.50;99.90
8715;DHT22;4394;51.208;8.904;2023-04-03T13:59:03;10.60;99.90
8715;DHT22;4394;51.208;8.904;2023-04-03T14:01:55;10.70;99.90
8715;DHT22;4394;51.208;8.904;2023-04-03T14:04:51;10.70;98.80
8715;DHT22;4394;51.208;8.904;2023-04-03T14:07:42;10.60;96.30
8715;DHT22;4394;51.208;8.904;2023-04-03T14:10:31;10.50;98.80
8715;DHT22;4394;51.208;8.904;2023-04-03T14:13:20;10.60;98.60
8715;DHT22;4394;51.208;8.904;2023-04-03T14:16:13;10.70;98.70
8715;DHT22;4394;51.208;8.904;2023-04-03T14:19:02;10.70;98.60
8715;DHT22;4394;51.208;8.904;2023-04-03T14:21:51;10.70;97.30
8715;DHT22;4394;51.208;8.904;2023-04-03T14:24:40;10.70;97.60
8715;DHT22;4394;51.208;8.904;2023-04-03T14:27:29;10.70;97.50
8715;DHT22;4394;51.208;8.904;2023-04-03T14:30:23;10.70;97.60
8715;DHT22;4394;51.208;8.904;2023-04-03T14:33:14;10.70;96.70
8715;DHT22;4394;51.208;8.904;2023-04-03T14:36:10;10.60;96.40
8715;DHT22;4394;51.208;8.904;2023-04-03T14:38:59;10.70;97.80
8715;DHT22;4394;51.208;8.904;2023-04-03T14:41:47;10.80;97.40
8715;DHT22;4394;51.208;8.904;2023-04-03T14:44:35;10.80;96.10
8715;DHT22;4394;51.208;8.904;2023-04-03T14:47:28;10.90;96.40
8715;DHT22;4394;51.208;8.904;2023-04-03T14:50:21;10.90;95.80
8715;DHT22;4394;51.208;8.904;2023-04-03T14:53:12;10.90;96.40
8715;DHT22;4394;51.208;8.904;2023-04-03T14:56:04;10.90;94.60
8715;DHT22;4394;51.208;8.904;2023-04-03T14:58:56;11.10;96.00
8715;DHT22;4394;51.208;8.904;2023-04-03T15:01:45;11.20;95.20
8715;DHT22;4394;51.208;8.904;2023-04-03T15:04:35;11.40;96.00
8715;DHT22;4394;51.208;8.904;2023-04-03T15:07:24;11.20;95.90
8715;DHT22;4394;51.208;8.904;2023-04-03T15:10:18;11.00;95.50
8715;DHT22;4394;51.208;8.904;2023-04-03T15:13:08;11.00;95.50
8715;DHT22;4394;51.208;8.904;2023-04-03T15:15:58;11.10;96.50
8715;DHT22;4394;51.208;8.904;2023-04-03T15:18:47;11.30;95.90
8715;DHT22;4394;51.208;8.904;2023-04-03T15:21:36;11.30;95.00
8715;DHT22;4394;51.208;8.904;2023-04-03T15:24:24;11.50;94.50
8715;DHT22;4394;51.208;8.904;2023-04-03T15:27:13;11.60;94.60
8715;DHT22;4394;51.208;8.904;2023-04-03T15:30:02;11.70;95.20
8715;DHT22;4394;51.208;8.904;2023-04-03T15:32:50;11.60;93.00
8715;DHT22;4394;51.208;8.904;2023-04-03T15:35:40;11.40;93.70
8715;DHT22;4394;51.208;8.904;2023-04-03T15:38:29;11.20;93.50
8715;DHT22;4394;51.208;8.904;2023-04-03T15:41:17;11.10;93.10
8715;DHT22;4394;51.208;8.904;2023-04-03T15:44:05;11.00;93.30
8715;DHT22;4394;51.208;8.904;2023-04-03T15:46:53;10.90;93.60
8715;DHT22;4394;51.208;8.904;2023-04-03T15:49:42;10.90;93.50
8715;DHT22;4394;51.208;8.904;2023-04-03T15:52:30;11.00;94.00
8715;DHT22;4394;51.208;8.904;2023-04-03T15:55:20;11.20;93.60
8715;DHT22;4394;51.208;8.904;2023-04-03T15:58:08;11.20;92.80
8715;DHT22;4394;51.208;8.904;2023-04-03T16:00:57;11.10;92.30
8715;DHT22;4394;51.208;8.904;2023-04-03T16:03:45;10.90;91.30
8715;DHT22;4394;51.208;8.904;2023-04-03T16:06:33;10.80;91.40
8715;DHT22;4394;51.208;8.904;2023-04-03T16:09:22;10.90;91.50
8715;DHT22;4394;51.208;8.904;2023-04-03T16:12:11;10.90;91.70
8715;DHT22;4394;51.208;8.904;2023-04-03T16:14:59;11.00;92.70
8715;DHT22;4394;51.208;8.904;2023-04-03T16:17:47;11.20;92.20
8715;DHT22;4394;51.208;8.904;2023-04-03T16:20:36;11.10;91.30
8715;DHT22;4394;51.208;8.904;2023-04-03T16:23:24;10.90;91.40
8715;DHT22;4394;51.208;8.904;2023-04-03T16:26:12;10.70;91.10
8715;DHT22;4394;51.208;8.904;2023-04-03T16:29:02;10.50;90.50
8715;DHT22;4394;51.208;8.904;2023-04-03T16:31:50;10.30;89.70
8715;DHT22;4394;51.208;8.904;2023-04-03T16:34:39;10.00;88.60
8715;DHT22;4394;51.208;8.904;2023-04-03T16:37:28;10.10;83.00
8715;DHT22;4394;51.208;8.904;2023-04-03T16:40:18;10.00;88.40
8715;DHT22;4394;51.208;8.904;2023-04-03T16:43:07;10.00;90.00
8715;DHT22;4394;51.208;8.904;2023-04-03T16:45:56;10.10;91.10
8715;DHT22;4394;51.208;8.904;2023-04-03T16:48:44;10.30;90.90
8715;DHT22;4394;51.208;8.904;2023-04-03T16:51:32;10.40;91.10
8715;DHT22;4394;51.208;8.904;2023-04-03T16:54:20;10.40;90.80
8715;DHT22;4394;51.208;8.904;2023-04-03T16:57:08;10.20;89.50
8715;DHT22;4394;51.208;8.904;2023-04-03T16:59:56;10.00;89.70
8715;DHT22;4394;51.208;8.904;2023-04-03T17:02:45;9.80;90.00
8715;DHT22;4394;51.208;8.904;2023-04-03T17:05:33;9.60;90.30
8715;DHT22;4394;51.208;8.904;2023-04-03T17:08:21;9.40;90.10
8715;DHT22;4394;51.208;8.904;2023-04-03T17:11:10;9.30;90.20
8715;DHT22;4394;51.208;8.904;2023-04-03T17:13:58;9.20;90.50
8715;DHT22;4394;51.208;8.904;2023-04-03T17:16:46;9.00;90.20
8715;DHT22;4394;51.208;8.904;2023-04-03T17:19:36;9.00;90.80
8715;DHT22;4394;51.208;8.904;2023-04-03T17:22:25;8.90;90.50
8715;DHT22;4394;51.208;8.904;2023-04-03T17:25:13;8.70;91.00
8715;DHT22;4394;51.208;8.904;2023-04-03T17:28:02;8.70;91.10
8715;DHT22;4394;51.208;8.904;2023-04-03T17:30:50;8.70;90.90
8715;DHT22;4394;51.208;8.904;2023-04-03T17:33:38;8.70;90.60
8715;DHT22;4394;51.208;8.904;2023-04-03T17:36:27;8.70;90.00
8715;DHT22;4394;51.208;8.904;2023-04-03T17:39:15;8.60;89.70
8715;DHT22;4394;51.208;8.904;2023-04-03T17:42:04;8.40;90.00
8715;DHT22;4394;51.208;8.904;2023-04-03T17:44:52;8.50;90.10
8715;DHT22;4394;51.208;8.904;2023-04-03T17:47:40;8.40;90.10
8715;DHT22;4394;51.208;8.904;2023-04-03T17:50:28;8.30;90.30
8715;DHT22;4394;51.208;8.904;2023-04-03T17:53:17;8.10;90.80
8715;DHT22;4394;51.208;8.904;2023-04-03T17:56:06;8.00;91.10
8715;DHT22;4394;51.208;8.904;2023-04-03T17:58:55;7.90;91.20
8715;DHT22;4394;51.208;8.904;2023-04-03T18:01:45;7.80;91.50
8715;DHT22;4394;51.208;8.904;2023-04-03T18:04:33;7.60;91.70
8715;DHT22;4394;51.208;8.904;2023-04-03T18:07:22;7.50;92.20
8715;DHT22;4394;51.208;8.904;2023-04-03T18:10:11;7.40;92.40
8715;DHT22;4394;51.208;8.904;2023-04-03T18:13:00;7.40;92.50
8715;DHT22;4394;51.208;8.904;2023-04-03T18:15:48;7.30;92.70
8715;DHT22;4394;51.208;8.904;2023-04-03T18:18:38;7.20;92.80
8715;DHT22;4394;51.208;8.904;2023-04-03T18:21:26;7.20;93.00
8715;DHT22;4394;51.208;8.904;2023-04-03T18:24:16;7.10;92.50
8715;DHT22;4394;51.208;8.904;2023-04-03T18:27:10;7.10;92.80
8715;DHT22;4394;51.208;8.904;2023-04-03T18:30:02;7.10;92.70
8715;DHT22;4394;51.208;8.904;2023-04-03T18:32:54;7.10;93.00
8715;DHT22;4394;51.208;8.904;2023-04-03T18:35:42;7.00;93.00
8715;DHT22;4394;51.208;8.904;2023-04-03T18:38:30;7.00;92.90
8715;DHT22;4394;51.208;8.904;2023-04-03T18:41:19;6.90;93.00
8715;DHT22;4394;51.208;8.904;2023-04-03T18:44:13;7.00;93.10
8715;DHT22;4394;51.208;8.904;2023-04-03T18:47:02;6.90;92.70
8715;DHT22;4394;51.208;8.904;2023-04-03T18:49:50;6.80;92.80
8715;DHT22;4394;51.208;8.904;2023-04-03T18:52:38;6.80;93.00